createdAt,value
2022-10-03T00:02:48.882Z,3.10
2022-10-03T00:05:37.740Z,3.80
2022-10-03T00:08:39.930Z,3.30
2022-10-03T00:11:29.093Z,3.40
2022-10-03T00:14:30.223Z,4.00
2022-10-03T00:17:10.369Z,3.90
2022-10-03T00:19:56.244Z,4.00
2022-10-03T00:22:52.015Z,4.30
2022-10-03T00:25:41.989Z,4.50
2022-10-03T00:28:40.300Z,3.50
2022-10-03T00:31:17.546Z,3.70
2022-10-03T00:34:19.236Z,3.90
2022-10-03T00:37:14.610Z,3.50
2022-10-03T00:40:06.711Z,3.30
2022-10-03T00:42:35.234Z,3.30
2022-10-03T00:45:12.227Z,3.90
2022-10-03T00:48:26.427Z,3.90
2022-10-03T00:51:00.115Z,3.60
2022-10-03T00:54:01.678Z,3.80
2022-10-03T00:56:32.006Z,4.40
2022-10-03T00:59:13.970Z,4.40
2022-10-03T01:01:49.471Z,4.10
2022-10-03T01:04:28.791Z,4.00
2022-10-03T01:07:19.858Z,3.70
2022-10-03T01:10:00.436Z,5.00
2022-10-03T01:12:55.337Z,4.50
2022-10-03T01:15:30.969Z,4.10
2022-10-03T01:18:17.716Z,4.20
2022-10-03T01:21:12.183Z,4.10
2022-10-03T01:24:17.535Z,4.80
2022-10-03T01:27:18.448Z,4.70
2022-10-03T01:30:13.386Z,4.90
2022-10-03T01:33:10.380Z,5.30
2022-10-03T01:36:12.651Z,4.80
2022-10-03T01:38:55.701Z,5.20
2022-10-03T01:41:35.594Z,4.90
2022-10-03T01:44:08.871Z,5.70
2022-10-03T01:46:47.289Z,5.50
2022-10-03T01:49:33.215Z,5.10
2022-10-03T01:52:04.935Z,5.80
2022-10-03T01:54:42.698Z,5.40
2022-10-03T01:57:46.200Z,5.80
2022-10-03T02:00:21.645Z,6.40
2022-10-03T02:03:31.639Z,6.30
2022-10-03T02:06:38.356Z,6.40
2022-10-03T02:09:48.413Z,5.90
2022-10-03T02:12:21.496Z,6.20
2022-10-03T02:15:02.100Z,6.50
2022-10-03T02:20:28.467Z,5.40
2022-10-03T02:25:26.407Z,6.10
2022-10-03T02:27:59.598Z,5.50
2022-10-03T02:30:56.007Z,5.50
2022-10-03T02:34:15.761Z,5.60
2022-10-03T02:37:19.285Z,5.90
2022-10-03T02:40:10.518Z,5.40
2022-10-03T02:43:05.783Z,5.60
2022-10-03T02:46:13.603Z,5.10
2022-10-03T02:48:59.355Z,6.00
2022-10-03T02:51:54.393Z,5.60
2022-10-03T02:54:50.863Z,4.90
2022-10-03T02:57:51.388Z,5.10
2022-10-03T03:00:22.731Z,5.00
2022-10-03T03:03:11.595Z,4.90
2022-10-03T03:05:58.869Z,3.70
2022-10-03T03:08:48.434Z,3.90
2022-10-03T03:11:40.362Z,4.80
2022-10-03T03:14:31.661Z,4.20
2022-10-03T03:17:33.757Z,4.40
2022-10-03T03:20:11.911Z,4.10
2022-10-03T03:22:44.882Z,4.50
2022-10-03T03:25:40.288Z,5.20
2022-10-03T03:28:19.179Z,4.60
2022-10-03T03:31:18.698Z,4.20
2022-10-03T03:34:09.002Z,4.40
2022-10-03T03:36:57.964Z,4.80
2022-10-03T03:40:08.408Z,4.60
2022-10-03T03:43:08.479Z,4.70
2022-10-03T03:45:41.405Z,5.00
2022-10-03T03:48:43.929Z,5.10
2022-10-03T03:51:34.673Z,4.90
2022-10-03T03:57:32.740Z,4.90
2022-10-03T04:00:12.246Z,4.20
2022-10-03T04:03:07.138Z,4.70
2022-10-03T04:06:10.445Z,5.20
2022-10-03T04:09:20.688Z,5.20
2022-10-03T04:12:17.959Z,5.10
2022-10-03T04:15:23.291Z,5.30
2022-10-03T04:19:01.026Z,5.10
2022-10-03T04:22:40.144Z,5.30
2022-10-03T04:25:55.058Z,5.80
2022-10-03T04:29:15.072Z,5.30
2022-10-03T04:32:08.943Z,6.20
2022-10-03T04:35:24.124Z,6.00
2022-10-03T04:38:32.039Z,5.90
2022-10-03T04:41:24.594Z,4.90
2022-10-03T04:44:19.780Z,4.90
2022-10-03T04:50:42.600Z,4.40
2022-10-03T04:54:20.664Z,4.60
2022-10-03T04:57:20.599Z,4.30
2022-10-03T05:00:23.927Z,4.00
2022-10-03T05:03:48.797Z,4.00
2022-10-03T05:07:04.747Z,4.90
2022-10-03T05:10:21.261Z,4.50
2022-10-03T05:13:50.658Z,5.60
2022-10-03T05:16:50.986Z,5.10
2022-10-03T05:19:42.435Z,5.20
2022-10-03T05:22:31.813Z,5.40
2022-10-03T05:25:30.607Z,5.80
2022-10-03T05:28:43.726Z,5.60
2022-10-03T05:31:42.676Z,6.40
2022-10-03T05:34:46.712Z,6.00
2022-10-03T05:37:49.433Z,5.90
2022-10-03T05:40:59.079Z,5.20
2022-10-03T05:44:08.507Z,4.80
2022-10-03T05:47:08.956Z,4.60
2022-10-03T05:53:37.793Z,5.20
2022-10-03T05:56:31.950Z,5.00
2022-10-03T05:59:55.095Z,5.00
2022-10-03T06:02:56.923Z,4.40
2022-10-03T06:06:39.441Z,4.60
2022-10-03T06:13:22.450Z,4.80
2022-10-03T06:16:06.521Z,4.20
2022-10-03T06:19:07.203Z,4.10
2022-10-03T06:22:02.670Z,5.00
2022-10-03T06:25:33.367Z,4.50
2022-10-03T06:28:35.680Z,4.20
2022-10-03T06:31:59.408Z,4.00
2022-10-03T06:35:04.163Z,4.30
2022-10-03T06:38:12.601Z,4.40
2022-10-03T06:41:06.510Z,4.10
2022-10-03T06:44:15.973Z,4.10
2022-10-03T06:47:18.607Z,4.50
2022-10-03T06:50:45.866Z,5.10
2022-10-03T06:53:50.449Z,4.10
2022-10-03T06:56:57.635Z,3.30
2022-10-03T07:00:15.350Z,3.80
2022-10-03T07:03:22.647Z,3.50
2022-10-03T07:06:22.783Z,3.70
2022-10-03T07:09:18.811Z,3.40
2022-10-03T07:12:33.471Z,3.60
2022-10-03T07:15:59.104Z,3.70
2022-10-03T07:19:28.289Z,3.60
2022-10-03T07:22:20.039Z,2.90
2022-10-03T07:25:22.279Z,3.10
2022-10-03T07:28:39.400Z,3.20
2022-10-03T07:32:19.518Z,3.80
2022-10-03T07:35:24.093Z,3.00
2022-10-03T07:38:58.132Z,2.90
2022-10-03T07:42:00.583Z,2.60
2022-10-03T07:45:06.505Z,2.90
2022-10-03T07:47:55.743Z,2.50
2022-10-03T07:51:06.079Z,2.70
2022-10-03T07:54:05.409Z,2.50
2022-10-03T07:57:03.737Z,3.00
2022-10-03T08:00:02.852Z,2.50
2022-10-03T08:02:56.677Z,2.40
2022-10-03T08:05:53.611Z,1.90
2022-10-03T08:09:02.430Z,2.50
2022-10-03T08:12:10.214Z,2.60
2022-10-03T08:15:06.674Z,2.10
2022-10-03T08:18:12.593Z,2.10
2022-10-03T08:21:27.781Z,2.40
2022-10-03T08:24:24.428Z,2.20
2022-10-03T08:27:30.417Z,2.40
2022-10-03T08:30:37.904Z,2.40
2022-10-03T08:33:48.258Z,2.20
2022-10-03T08:37:14.115Z,2.30
2022-10-03T08:40:19.194Z,2.20
2022-10-03T08:43:36.130Z,2.50
2022-10-03T08:46:54.594Z,2.10
2022-10-03T08:49:51.648Z,2.10
2022-10-03T08:53:12.284Z,2.50
2022-10-03T08:56:18.272Z,2.40
2022-10-03T09:00:11.025Z,2.80
2022-10-03T09:03:42.897Z,2.90
2022-10-03T09:10:39.381Z,2.70
2022-10-03T09:13:28.219Z,3.20
2022-10-03T09:16:23.850Z,3.10
2022-10-03T09:19:48.429Z,3.10
2022-10-03T09:22:51.842Z,2.60
2022-10-03T09:28:39.611Z,3.40
2022-10-03T09:31:51.648Z,2.70
2022-10-03T09:35:01.751Z,2.90
2022-10-03T09:38:13.436Z,3.20
2022-10-03T09:41:26.561Z,3.10
2022-10-03T09:44:59.380Z,3.30
2022-10-03T09:48:04.079Z,3.40
2022-10-03T09:51:22.325Z,3.20
2022-10-03T09:54:27.058Z,3.90
2022-10-03T09:57:54.556Z,3.20
2022-10-03T10:00:56.777Z,3.40
2022-10-03T10:03:42.064Z,3.50
2022-10-03T10:06:25.216Z,3.30
2022-10-03T10:09:12.105Z,3.40
2022-10-03T10:12:28.730Z,3.50
2022-10-03T10:15:39.299Z,3.10
2022-10-03T10:19:20.055Z,2.90
2022-10-03T10:22:03.966Z,2.90
2022-10-03T10:25:06.171Z,3.00
2022-10-03T10:28:01.813Z,2.80
2022-10-03T10:30:59.037Z,3.10
2022-10-03T10:33:45.505Z,2.90
2022-10-03T10:37:46.047Z,2.70
2022-10-03T10:40:59.901Z,2.50
2022-10-03T10:43:49.311Z,3.10
2022-10-03T10:49:25.301Z,2.60
2022-10-03T10:53:19.702Z,2.50
2022-10-03T10:56:31.045Z,2.90
2022-10-03T10:59:55.367Z,2.30
2022-10-03T11:02:54.953Z,2.20
2022-10-03T11:05:48.529Z,2.20
2022-10-03T11:08:58.312Z,1.90
2022-10-03T11:11:54.795Z,1.80
2022-10-03T11:14:35.106Z,1.60
2022-10-03T11:21:11.560Z,1.60
2022-10-03T11:24:28.474Z,1.10
2022-10-03T11:27:22.437Z,1.00
2022-10-03T11:30:27.305Z,1.00
2022-10-03T11:33:16.248Z,1.10
2022-10-03T11:36:13.206Z,1.00
2022-10-03T11:39:22.755Z,1.40
2022-10-03T11:42:21.540Z,0.90
2022-10-03T11:45:03.290Z,1.20
2022-10-03T11:47:42.781Z,1.20
2022-10-03T11:50:44.595Z,1.20
2022-10-03T11:53:43.171Z,1.30
2022-10-03T11:57:06.795Z,1.10
2022-10-03T12:00:35.414Z,1.10
2022-10-03T12:03:45.323Z,1.00
2022-10-03T12:07:10.609Z,1.10
2022-10-03T12:10:07.685Z,0.90
2022-10-03T12:12:47.340Z,1.30
2022-10-03T12:15:57.170Z,1.40
2022-10-03T12:19:22.942Z,1.30
2022-10-03T12:22:39.670Z,1.60
2022-10-03T12:25:30.708Z,1.30
2022-10-03T12:28:31.003Z,0.90
2022-10-03T12:31:50.363Z,1.10
2022-10-03T12:34:53.719Z,1.20
2022-10-03T12:37:40.077Z,1.30
2022-10-03T12:40:36.049Z,1.20
2022-10-03T12:43:41.900Z,1.40
2022-10-03T12:47:37.546Z,1.20
2022-10-03T12:50:55.076Z,1.10
2022-10-03T12:53:54.155Z,1.20
2022-10-03T12:57:00.694Z,1.20
2022-10-03T13:00:16.124Z,1.20
2022-10-03T13:03:33.754Z,1.30
2022-10-03T13:07:01.710Z,0.90
2022-10-03T13:09:55.666Z,1.10
2022-10-03T13:12:46.373Z,1.20
2022-10-03T13:18:34.986Z,1.10
2022-10-03T13:21:46.923Z,0.80
2022-10-03T13:24:42.191Z,1.00
2022-10-03T13:27:41.034Z,1.20
2022-10-03T13:30:24.302Z,1.10
2022-10-03T13:33:18.580Z,1.00
2022-10-03T13:35:59.248Z,0.90
2022-10-03T13:39:19.009Z,0.90
2022-10-03T13:41:59.872Z,1.00
2022-10-03T13:45:21.429Z,1.20
2022-10-03T13:48:04.553Z,1.00
2022-10-03T13:50:55.142Z,0.90
2022-10-03T13:56:47.709Z,0.90
2022-10-03T13:59:49.501Z,1.00
2022-10-03T14:02:58.383Z,1.10
2022-10-03T14:05:42.913Z,1.20
2022-10-03T14:08:26.911Z,1.20
2022-10-03T14:11:24.075Z,0.90
2022-10-03T14:14:12.615Z,1.10
2022-10-03T14:17:20.225Z,0.80
2022-10-03T14:20:32.620Z,1.00
2022-10-03T14:23:28.963Z,1.20
2022-10-03T14:26:48.624Z,1.40
2022-10-03T14:29:45.160Z,1.10
2022-10-03T14:32:59.992Z,1.20
2022-10-03T14:36:00.498Z,1.10
2022-10-03T14:39:07.708Z,1.10
2022-10-03T14:42:14.937Z,1.10
2022-10-03T14:48:28.699Z,1.20
2022-10-03T14:51:24.211Z,1.80
2022-10-03T14:54:08.820Z,1.00
2022-10-03T14:57:06.790Z,1.00
2022-10-03T14:59:58.181Z,1.00
2022-10-03T15:02:50.159Z,1.50
2022-10-03T15:05:44.253Z,1.10
2022-10-03T15:08:45.397Z,0.90
2022-10-03T15:11:36.358Z,1.00
2022-10-03T15:14:14.564Z,1.00
2022-10-03T15:17:43.439Z,1.10
2022-10-03T15:20:46.957Z,1.10
2022-10-03T15:23:57.304Z,0.90
2022-10-03T15:27:03.259Z,1.00
2022-10-03T15:29:51.715Z,1.00
2022-10-03T15:32:36.477Z,1.00
2022-10-03T15:35:29.275Z,1.00
2022-10-03T15:38:35.214Z,0.90
2022-10-03T15:41:25.265Z,1.00
2022-10-03T15:44:06.706Z,1.10
2022-10-03T15:47:14.220Z,1.10
2022-10-03T15:50:08.411Z,1.00
2022-10-03T15:52:53.708Z,1.00
2022-10-03T15:55:44.251Z,1.10
2022-10-03T15:58:40.002Z,1.10
2022-10-03T16:01:51.213Z,1.00
2022-10-03T16:07:50.952Z,1.00
2022-10-03T16:10:37.652Z,1.30
2022-10-03T16:14:01.419Z,1.20
2022-10-03T16:16:49.274Z,1.20
2022-10-03T16:19:49.716Z,1.20
2022-10-03T16:22:39.289Z,1.30
2022-10-03T16:25:36.435Z,1.50
2022-10-03T16:28:41.300Z,1.50
2022-10-03T16:32:18.302Z,1.30
2022-10-03T16:35:18.303Z,1.50
2022-10-03T16:37:54.163Z,1.50
2022-10-03T16:41:11.410Z,1.50
2022-10-03T16:44:28.109Z,1.50
2022-10-03T16:47:05.610Z,1.10
2022-10-03T16:50:15.020Z,1.30
2022-10-03T16:53:11.555Z,1.50
2022-10-03T16:59:15.305Z,1.90
2022-10-03T17:02:29.658Z,1.70
2022-10-03T17:05:32.908Z,1.70
2022-10-03T17:09:05.880Z,1.90
2022-10-03T17:11:49.289Z,2.40
2022-10-03T17:14:44.577Z,2.90
2022-10-03T17:17:26.813Z,2.60
2022-10-03T17:20:50.196Z,2.90
2022-10-03T17:24:13.605Z,2.80
2022-10-03T17:27:06.151Z,2.70
2022-10-03T17:30:04.078Z,2.60
2022-10-03T17:33:08.313Z,3.00
2022-10-03T17:36:11.301Z,3.40
2022-10-03T17:39:39.040Z,3.40
2022-10-03T17:42:59.837Z,3.30
2022-10-03T17:46:07.291Z,3.10
2022-10-03T17:49:10.091Z,3.00
2022-10-03T17:52:27.537Z,3.20
2022-10-03T17:59:20.301Z,2.90
2022-10-03T18:02:30.762Z,3.10
2022-10-03T18:05:43.936Z,2.90
2022-10-03T18:08:43.340Z,2.90
2022-10-03T18:12:09.241Z,2.30
2022-10-03T18:15:39.156Z,3.00
2022-10-03T18:18:50.283Z,2.70
2022-10-03T18:22:01.253Z,2.70
2022-10-03T18:25:33.682Z,2.40
2022-10-03T18:28:55.906Z,2.20
2022-10-03T18:32:25.366Z,2.30
2022-10-03T18:35:55.815Z,2.90
2022-10-03T18:39:18.356Z,2.60
2022-10-03T18:42:46.465Z,2.70
2022-10-03T18:49:39.757Z,2.80
2022-10-03T18:52:44.608Z,2.60
2022-10-03T19:00:14.445Z,3.00
2022-10-03T19:03:02.596Z,3.10
2022-10-03T19:06:01.277Z,3.20
2022-10-03T19:10:07.003Z,3.80
2022-10-03T19:12:51.175Z,3.20
2022-10-03T19:16:01.737Z,4.00
2022-10-03T19:18:59.987Z,4.00
2022-10-03T19:22:08.946Z,4.50
2022-10-03T19:25:05.822Z,4.30
2022-10-03T19:28:14.886Z,4.70
2022-10-03T19:31:21.719Z,5.20
2022-10-03T19:34:34.117Z,4.10
2022-10-03T19:37:14.425Z,4.70
2022-10-03T19:40:33.029Z,4.60
2022-10-03T19:43:40.903Z,5.30
2022-10-03T19:46:38.375Z,4.60
2022-10-03T19:50:16.004Z,5.60
2022-10-03T19:52:59.297Z,5.40
2022-10-03T19:55:51.421Z,4.90
2022-10-03T19:59:14.381Z,5.00
2022-10-03T20:01:55.866Z,5.20
2022-10-03T20:04:37.575Z,5.40
2022-10-03T20:07:34.157Z,5.80
2022-10-03T20:10:47.949Z,5.80
2022-10-03T20:13:48.371Z,6.00
2022-10-03T20:20:27.186Z,6.20
2022-10-03T20:23:34.037Z,6.50
2022-10-03T20:26:42.747Z,6.10
2022-10-03T20:29:52.695Z,6.40
2022-10-03T20:32:37.100Z,6.50
2022-10-03T20:35:30.598Z,6.60
2022-10-03T20:38:38.545Z,6.90
2022-10-03T20:45:39.532Z,6.20
2022-10-03T20:48:27.953Z,7.10
2022-10-03T20:51:44.837Z,7.30
2022-10-03T20:54:32.859Z,7.40
2022-10-03T21:00:35.851Z,7.30
2022-10-03T21:03:32.859Z,7.00
2022-10-03T21:06:27.533Z,7.80
2022-10-03T21:09:21.527Z,8.60
2022-10-03T21:12:19.678Z,8.70
2022-10-03T21:15:03.945Z,8.00
2022-10-03T21:17:59.658Z,7.50
2022-10-03T21:20:44.819Z,8.50
2022-10-03T21:23:51.299Z,9.30
2022-10-03T21:26:52.240Z,9.90
2022-10-03T21:29:40.475Z,8.60
2022-10-03T21:33:07.221Z,8.40
2022-10-03T21:35:43.586Z,8.30
2022-10-03T21:38:37.783Z,9.10
2022-10-03T21:41:50.432Z,9.10
2022-10-03T21:45:24.006Z,9.10
2022-10-03T21:48:36.408Z,8.20
2022-10-03T21:51:40.407Z,8.90
2022-10-03T21:54:32.353Z,9.50
2022-10-03T21:57:19.701Z,8.80
2022-10-03T21:59:55.730Z,8.30
2022-10-03T22:02:51.153Z,7.80
2022-10-03T22:05:54.717Z,8.90
2022-10-03T22:08:34.313Z,9.00
2022-10-03T22:11:27.856Z,10.00
2022-10-03T22:14:35.043Z,7.90
2022-10-03T22:17:20.455Z,7.80
2022-10-03T22:20:24.841Z,8.50
2022-10-03T22:23:29.678Z,8.60
2022-10-03T22:27:12.715Z,9.40
2022-10-03T22:30:04.223Z,8.20
2022-10-03T22:33:28.386Z,8.20
2022-10-03T22:36:04.605Z,8.90
2022-10-03T22:38:44.235Z,9.30
2022-10-03T22:41:51.716Z,8.40
2022-10-03T22:44:26.814Z,7.60
2022-10-03T22:47:12.662Z,9.20
2022-10-03T22:50:12.880Z,10.00
2022-10-03T22:53:15.640Z,9.80
2022-10-03T22:56:04.292Z,9.60
2022-10-03T22:58:32.264Z,10.30
2022-10-03T23:01:15.219Z,11.00
2022-10-03T23:03:48.349Z,9.90
2022-10-03T23:06:43.725Z,9.80
2022-10-03T23:09:34.908Z,8.70
2022-10-03T23:12:28.890Z,8.90
2022-10-03T23:15:03.703Z,9.00
2022-10-03T23:18:31.470Z,8.20
2022-10-03T23:21:21.749Z,8.00
2022-10-03T23:23:55.571Z,7.80
2022-10-03T23:26:44.934Z,8.10
2022-10-03T23:29:15.179Z,8.90
2022-10-03T23:32:10.177Z,8.40
2022-10-03T23:34:50.338Z,7.00
2022-10-03T23:37:41.315Z,7.50
2022-10-03T23:40:15.889Z,7.30
2022-10-03T23:43:31.955Z,6.80
2022-10-03T23:46:36.049Z,6.60
2022-10-03T23:49:17.559Z,5.80
2022-10-03T23:52:03.400Z,5.50
2022-10-03T23:54:37.165Z,5.90
2022-10-03T23:57:19.284Z,6.10
